^^
Station Historical Data
Daily Summary for July 29, 2017 Units:  Metric    English   Both
« Previous Day
Next Day »
Daily Weekly Monthly Yearly Custom
  High: Low: Average:
Temperature: 25.5 °C 12.8 °C 16.6 °C
Dew Point: -0.5 °C -4 °C -2.6 °C
Humidity: 34% 16% 27%
Wind Speed: 20.9km/h 0km/h 4.8km/h
Wind Gust: 20.9km/h - -
Wind- - North
Pressure: 1023.6 hPa 1019.5 hPa -
Precipitation: 0 mm    
Historical Graphs
 
 
Tabular Data for July 29, 2017
Time Temperature Dew Point Pressure Wind Wind Speed Wind Gust Humidity Rainfall Rate (Hourly) solar Conditions
02:45 14.8 °C -3.5 °C 1021.2 hPa Calm     28% 0 mm 0.0 W/m2
02:50 14.8 °C -3.5 °C 1021.2 hPa North 6.4 km/h 9.7 km/h 28% 0 mm 0.0 W/m2
02:55 14.8 °C -3.5 °C 1021.2 hPa North 3.2 km/h 8 km/h 28% 0 mm 0.0 W/m2
03:00 14.8 °C -3.5 °C 1021.2 hPa North 3.2 km/h 11.3 km/h 28% 0 mm 0.0 W/m2
03:05 14.8 °C -3.5 °C 1021.2 hPa North 7.9 km/h 9.7 km/h 28% 0 mm 0.0 W/m2
03:10 14.7 °C -3.6 °C 1021.2 hPa North 6.4 km/h 11.3 km/h 28% 0 mm 0.0 W/m2
03:15 14.6 °C -3.2 °C 1021.2 hPa North 1.4 km/h 11.3 km/h 29% 0 mm 0.0 W/m2
03:25 14.6 °C -3.2 °C 1021.2 hPa Calm   9.7 km/h 29% 0 mm 0.0 W/m2
03:41 14.7 °C -3.2 °C 1021.2 hPa North 11.1 km/h 11.3 km/h 29% 0 mm 0.0 W/m2
03:46 14.8 °C -3.1 °C 1021.2 hPa North 11.1 km/h 11.3 km/h 29% 0 mm 0.0 W/m2
03:51 14.8 °C -3.1 °C 1021.2 hPa North 13 km/h 13 km/h 29% 0 mm 0.0 W/m2
03:56 14.8 °C -3.1 °C 1021.2 hPa North 7.9 km/h 11.3 km/h 29% 0 mm 0.0 W/m2
04:01 14.8 °C -3.1 °C 1021.2 hPa North 1.4 km/h 11.3 km/h 29% 0 mm 0.0 W/m2
04:06 14.8 °C -3.1 °C 1021.2 hPa North 3.2 km/h 11.3 km/h 29% 0 mm 0.0 W/m2
04:16 14.8 °C -3.1 °C 1021.2 hPa North 3.2 km/h 12.9 km/h 29% 0 mm 0.0 W/m2
04:31 14.6 °C -2.8 °C 1021.2 hPa North 7.9 km/h 11.3 km/h 30% 0 mm 0.0 W/m2
04:36 14.6 °C -2.8 °C 1021.2 hPa North 9.7 km/h 11.3 km/h 30% 0 mm 0.0 W/m2
04:41 14.7 °C -2.7 °C 1021.2 hPa North 3.2 km/h 14.5 km/h 30% 0 mm 0.0 W/m2
04:46 14.7 °C -2.7 °C 1021.2 hPa North 13 km/h 14.5 km/h 30% 0 mm 0.0 W/m2
04:51 14.7 °C -2.7 °C 1021.6 hPa North 11.1 km/h 16.1 km/h 30% 0 mm 0.0 W/m2
04:56 14.7 °C -2.7 °C 1021.6 hPa North 11.1 km/h 12.9 km/h 30% 0 mm 0.0 W/m2
05:01 14.7 °C -2.7 °C 1021.6 hPa North 11.1 km/h 16.1 km/h 30% 0 mm 0.0 W/m2
05:11 14.6 °C -2.8 °C 1021.6 hPa North 9.7 km/h 12.9 km/h 30% 0 mm 0.0 W/m2
05:21 14.3 °C -3.1 °C 1021.9 hPa Calm   9.7 km/h 30% 0 mm 0.0 W/m2
05:26 14.1 °C -2.8 °C 1021.9 hPa North 11.1 km/h 12.9 km/h 31% 0 mm 0.0 W/m2
05:31 14 °C -2.9 °C 1021.9 hPa North 6.4 km/h 12.9 km/h 31% 0 mm 0.0 W/m2
05:37 13.9 °C -3 °C 1021.9 hPa Calm   12.9 km/h 31% 0 mm 0.0 W/m2
05:47 13.7 °C -2.7 °C 1021.9 hPa Calm   3.2 km/h 32% 0 mm 0.0 W/m2
05:52 13.4 °C -3 °C 1021.9 hPa North 6.4 km/h 8 km/h 32% 0 mm 0.0 W/m2
05:57 13.3 °C -2.6 °C 1021.9 hPa Calm     33% 0 mm 0.0 W/m2
06:02 12.9 °C -3 °C 1021.9 hPa Calm     33% 0 mm 0.0 W/m2
06:13 12.8 °C -2.7 °C 1022.2 hPa North 1.4 km/h 11.3 km/h 34% 0 mm 0.0 W/m2
06:32 13.3 °C -2.6 °C 1022.2 hPa North 7.9 km/h 12.9 km/h 33% 0 mm 0.0 W/m2
06:42 13.6 °C -2.4 °C 1022.2 hPa North 9.7 km/h 12.9 km/h 33% 0 mm 11.0 W/m2
06:57 13.3 °C -2.2 °C 1022.2 hPa North 13 km/h 13 km/h 34% 0 mm 19.0 W/m2
07:04 13.3 °C -2.2 °C 1022.6 hPa North 7.9 km/h 11.3 km/h 34% 0 mm 23.0 W/m2
07:09 13.3 °C -2.2 °C 1022.6 hPa North 6.4 km/h 11.3 km/h 34% 0 mm 26.0 W/m2
07:16 13.4 °C -2.2 °C 1022.6 hPa North 7.9 km/h 12.9 km/h 34% 0 mm 44.0 W/m2
07:58 15.3 °C -1.7 °C 1022.9 hPa North 9.7 km/h 12.9 km/h 31% 0 mm 193.0 W/m2
08:29 17.1 °C -1.1 °C 1023.2 hPa North 9.7 km/h 14.5 km/h 29% 0 mm 281.0 W/m2
09:00 19.4 °C -0.6 °C 1023.2 hPa North 7.9 km/h 19.3 km/h 26% 0 mm 362.0 W/m2
09:35 20.6 °C -0.7 °C 1023.6 hPa North 20.9 km/h 20.9 km/h 24% 0 mm 464.0 W/m2
09:45 20.8 °C -0.5 °C 1023.6 hPa North 13 km/h 20.9 km/h 24% 0 mm 485.0 W/m2
09:50 21.1 °C -0.8 °C 1023.6 hPa North 11.1 km/h 20.9 km/h 23% 0 mm 492.0 W/m2
15:57 25.4 °C -1.4 °C 1019.5 hPa Calm   8 km/h 17% 0 mm 214.0 W/m2
16:05 25.5 °C -1.3 °C 1019.5 hPa Calm   6.4 km/h 17% 0 mm 183.0 W/m2
16:15 25.3 °C -2.3 °C 1019.5 hPa Calm     16% 0 mm 141.0 W/m2
16:25 25 °C -1.8 °C 1019.5 hPa Calm   9.7 km/h 17% 0 mm 114.0 W/m2
16:28 25 °C -1.8 °C 1019.5 hPa Calm     17% 0 mm 91.0 W/m2
16:33 25 °C -1.8 °C 1019.5 hPa Calm     17% 0 mm 77.0 W/m2
16:46 24.8 °C -1.9 °C 1019.5 hPa Calm     17% 0 mm 49.0 W/m2
16:56 24.6 °C -2.1 °C 1019.5 hPa Calm     17% 0 mm 26.0 W/m2
17:06 24.2 °C -2.4 °C 1019.5 hPa Calm     17% 0 mm 12.0 W/m2
18:43 17.4 °C -4 °C 1020.5 hPa Calm     23% 0 mm 0.0 W/m2
18:53 17.5 °C -3.3 °C 1020.2 hPa Calm     24% 0 mm 0.0 W/m2
19:08 17.4 °C -4 °C 1020.2 hPa Calm     23% 0 mm 0.0 W/m2
19:28 16.8 °C -3.3 °C 1020.5 hPa Calm     25% 0 mm 0.0 W/m2
19:49 16 °C -3.5 °C 1020.5 hPa Calm     26% 0 mm 0.0 W/m2
20:19 15.8 °C -3.7 °C 1020.5 hPa Calm     26% 0 mm 0.0 W/m2
20:31 15.3 °C -3.6 °C 1020.5 hPa Calm     27% 0 mm 0.0 W/m2
20:52 15.8 °C -3.2 °C 1020.5 hPa Calm     27% 0 mm 0.0 W/m2
21:19 16.3 °C -2.7 °C 1020.9 hPa Calm     27% 0 mm 0.0 W/m2
21:32 16.6 °C -2.5 °C 1020.9 hPa Calm     27% 0 mm 0.0 W/m2
21:42 17.5 °C -2.2 °C 1020.9 hPa Calm   8 km/h 26% 0 mm 0.0 W/m2
21:51 17.5 °C -2.2 °C 1021.2 hPa North 9.7 km/h 16.1 km/h 26% 0 mm 0.0 W/m2
22:01 17.1 °C -2.6 °C 1021.2 hPa North 3.2 km/h 3.2 km/h 26% 0 mm 0.0 W/m2
22:10 17.1 °C -2.1 °C 1021.2 hPa Calm   11.3 km/h 27% 0 mm 0.0 W/m2
Canyon Roadhouse, Fishriver Canyon, Namibia
Compliments of Weather Underground - 2 mb